createdAt,value
2023-03-24T00:01:42.112Z,12.49
2023-03-24T00:05:25.265Z,12.50
2023-03-24T00:09:08.103Z,12.50
2023-03-24T00:12:51.610Z,12.50
2023-03-24T00:16:38.438Z,12.49
2023-03-24T00:20:23.995Z,12.51
2023-03-24T00:24:08.576Z,12.49
2023-03-24T00:27:53.237Z,12.46
2023-03-24T00:31:39.891Z,12.44
2023-03-24T00:35:24.271Z,12.42
2023-03-24T00:39:07.327Z,12.44
2023-03-24T00:42:51.084Z,12.40
2023-03-24T00:46:34.088Z,12.37
2023-03-24T00:50:20.413Z,12.29
2023-03-24T00:54:05.076Z,12.23
2023-03-24T00:57:50.940Z,12.22
2023-03-24T01:01:36.666Z,12.22
2023-03-24T01:05:21.100Z,12.24
2023-03-24T01:09:06.083Z,12.27
2023-03-24T01:12:49.252Z,12.32
2023-03-24T01:16:32.359Z,12.40
2023-03-24T01:20:15.652Z,12.44
2023-03-24T01:23:58.964Z,12.50
2023-03-24T01:27:43.225Z,12.54
2023-03-24T01:31:26.225Z,12.55
2023-03-24T01:35:09.554Z,12.54
2023-03-24T01:38:52.417Z,12.56
2023-03-24T01:42:35.257Z,12.57
2023-03-24T01:46:20.772Z,12.61
2023-03-24T01:50:05.199Z,12.67
2023-03-24T01:53:55.618Z,12.70
2023-03-24T01:57:41.880Z,12.75
2023-03-24T02:01:30.082Z,12.77
2023-03-24T02:05:14.469Z,12.78
2023-03-24T02:08:59.313Z,12.82
2023-03-24T02:12:43.434Z,12.87
2023-03-24T02:16:57.653Z,12.87
2023-03-24T02:21:14.885Z,12.87
2023-03-24T02:25:23.483Z,12.88
2023-03-24T02:29:21.615Z,12.87
2023-03-24T02:33:25.742Z,12.86
2023-03-24T02:37:40.875Z,12.87
2023-03-24T02:41:28.439Z,12.91
2023-03-24T02:45:21.412Z,12.92
2023-03-24T02:49:12.390Z,12.91
2023-03-24T02:53:02.825Z,12.89
2023-03-24T02:56:48.939Z,12.82
2023-03-24T03:00:34.520Z,12.79
2023-03-24T03:04:20.048Z,12.74
2023-03-24T03:08:05.531Z,12.74
2023-03-24T03:11:51.631Z,12.77
2023-03-24T03:15:37.043Z,12.71
2023-03-24T03:19:21.903Z,12.63
2023-03-24T03:23:07.744Z,12.54
2023-03-24T03:26:51.912Z,12.48
2023-03-24T03:30:38.209Z,12.45
2023-03-24T03:34:28.459Z,12.42
2023-03-24T03:38:15.935Z,12.37
2023-03-24T03:42:00.578Z,12.36
2023-03-24T03:45:43.645Z,12.32
2023-03-24T03:49:26.724Z,12.24
2023-03-24T03:53:09.812Z,12.18
2023-03-24T03:56:54.000Z,12.09
2023-03-24T04:00:38.562Z,12.07
2023-03-24T04:04:38.038Z,12.01
2023-03-24T04:08:27.438Z,12.02
2023-03-24T04:12:23.362Z,12.01
2023-03-24T04:16:10.088Z,12.01
2023-03-24T04:20:02.785Z,12.06
2023-03-24T04:23:50.566Z,12.08
2023-03-24T04:27:40.071Z,12.14
2023-03-24T04:31:27.948Z,12.13
2023-03-24T04:35:14.624Z,12.09
2023-03-24T04:38:58.238Z,12.11
2023-03-24T04:42:45.427Z,12.10
2023-03-24T04:46:29.562Z,12.12
2023-03-24T04:50:13.158Z,12.13
2023-03-24T04:53:55.895Z,12.17
2023-03-24T04:57:38.922Z,12.18
2023-03-24T05:01:22.450Z,12.26
2023-03-24T05:05:07.429Z,12.25
2023-03-24T05:08:50.053Z,12.22
2023-03-24T05:12:32.760Z,12.23
2023-03-24T05:16:16.102Z,12.27
2023-03-24T05:19:58.846Z,12.29
2023-03-24T05:23:42.893Z,12.30
2023-03-24T05:27:25.753Z,12.26
2023-03-24T05:31:08.571Z,12.26
2023-03-24T05:34:51.950Z,12.30
2023-03-24T05:38:34.578Z,12.28
2023-03-24T05:42:18.692Z,12.20
2023-03-24T05:46:01.387Z,12.18
2023-03-24T05:49:44.118Z,12.16
2023-03-24T05:53:26.847Z,12.18
2023-03-24T05:57:13.538Z,12.22
2023-03-24T06:00:57.653Z,12.23
2023-03-24T06:04:45.988Z,12.21
2023-03-24T06:08:28.904Z,12.20
2023-03-24T06:12:12.422Z,12.22
2023-03-24T06:15:59.349Z,12.28
2023-03-24T06:19:48.813Z,12.34
2023-03-24T06:23:33.896Z,12.38
2023-03-24T06:27:18.805Z,12.35
2023-03-24T06:31:01.492Z,12.32
2023-03-24T06:34:46.991Z,12.38
2023-03-24T06:38:29.679Z,12.41
2023-03-24T06:42:16.048Z,12.46
2023-03-24T06:46:02.076Z,12.49
2023-03-24T06:49:46.340Z,12.45
2023-03-24T06:53:29.030Z,12.44
2023-03-24T06:57:11.848Z,12.39
2023-03-24T07:00:55.259Z,12.38
2023-03-24T07:04:37.956Z,12.40
2023-03-24T07:12:08.201Z,12.51
2023-03-24T07:15:51.367Z,12.56
2023-03-24T07:19:34.068Z,12.60
2023-03-24T07:23:16.846Z,12.61
2023-03-24T07:27:01.048Z,12.65
2023-03-24T07:30:43.821Z,12.68
2023-03-24T07:34:27.088Z,12.71
2023-03-24T07:38:10.295Z,12.71
2023-03-24T07:41:53.086Z,12.63
2023-03-24T07:45:37.194Z,12.58
2023-03-24T07:49:20.365Z,12.57
2023-03-24T07:53:03.118Z,12.59
2023-03-24T07:56:45.928Z,13.04
2023-03-24T08:00:33.081Z,13.24
2023-03-24T08:04:17.534Z,12.95
2023-03-24T08:08:00.267Z,12.91
2023-03-24T08:11:42.939Z,13.10
2023-03-24T08:15:27.123Z,13.34
2023-03-24T08:19:09.942Z,13.41
2023-03-24T08:22:54.490Z,13.49
2023-03-24T08:26:37.739Z,13.49
2023-03-24T08:30:22.117Z,13.53
2023-03-24T08:34:06.492Z,13.55
2023-03-24T08:37:49.369Z,13.62
2023-03-24T08:41:38.193Z,13.64
2023-03-24T08:45:27.492Z,13.73
2023-03-24T08:49:10.683Z,13.74
2023-03-24T08:52:54.747Z,13.72
2023-03-24T08:56:41.472Z,13.74
2023-03-24T09:00:24.812Z,13.73
2023-03-24T09:04:08.240Z,13.89
2023-03-24T09:08:00.610Z,13.85
2023-03-24T09:11:43.285Z,13.88
2023-03-24T09:15:26.308Z,13.86
2023-03-24T09:19:09.196Z,13.87
2023-03-24T09:22:55.823Z,13.88
2023-03-24T09:26:39.799Z,13.90
2023-03-24T09:30:22.488Z,13.93
2023-03-24T09:34:05.119Z,13.95
2023-03-24T09:37:47.843Z,13.84
2023-03-24T09:41:33.921Z,13.64
2023-03-24T09:45:20.426Z,13.58
2023-03-24T09:49:03.962Z,13.50
2023-03-24T09:52:50.336Z,13.41
2023-03-24T09:56:36.788Z,13.35
2023-03-24T10:00:23.993Z,13.23
2023-03-24T10:04:15.035Z,13.13
2023-03-24T10:08:01.175Z,13.08
2023-03-24T10:11:46.994Z,12.95
2023-03-24T10:15:38.235Z,12.98
2023-03-24T10:19:28.448Z,12.87
2023-03-24T10:23:22.835Z,12.87
2023-03-24T10:27:11.200Z,12.92
2023-03-24T10:30:57.343Z,12.91
2023-03-24T10:34:40.640Z,12.98
2023-03-24T10:38:24.116Z,12.95
2023-03-24T10:42:07.235Z,13.01
2023-03-24T10:45:51.928Z,13.08
2023-03-24T10:49:36.071Z,13.08
2023-03-24T10:53:20.290Z,13.18
2023-03-24T10:57:04.666Z,13.10
2023-03-24T11:00:48.713Z,13.06
2023-03-24T11:04:32.152Z,13.02
2023-03-24T11:08:27.009Z,12.98
2023-03-24T11:12:30.507Z,12.99
2023-03-24T11:16:15.117Z,12.90
2023-03-24T11:20:00.077Z,12.92
2023-03-24T11:23:45.589Z,12.82
2023-03-24T11:27:28.491Z,12.55
2023-03-24T11:31:19.130Z,12.33
2023-03-24T11:35:06.046Z,12.33
2023-03-24T11:39:00.325Z,12.38
2023-03-24T11:42:46.069Z,12.50
2023-03-24T11:46:29.242Z,12.65
2023-03-24T11:50:17.640Z,12.76
2023-03-24T11:54:04.409Z,12.91
2023-03-24T11:57:52.965Z,13.07
2023-03-24T12:01:38.682Z,13.16
2023-03-24T12:05:31.697Z,13.32
2023-03-24T12:09:22.166Z,13.50
2023-03-24T12:13:18.787Z,13.68
2023-03-24T12:17:12.557Z,13.89
2023-03-24T12:20:59.692Z,14.08
2023-03-24T12:24:55.001Z,14.23
2023-03-24T12:28:53.472Z,14.33
2023-03-24T12:32:43.150Z,14.41
2023-03-24T12:36:40.024Z,14.49
2023-03-24T12:40:40.065Z,14.53
2023-03-24T12:44:36.926Z,14.60
2023-03-24T12:48:35.187Z,14.62
2023-03-24T12:52:57.964Z,14.70
2023-03-24T12:56:54.251Z,14.77
2023-03-24T13:00:42.654Z,14.78
2023-03-24T13:04:28.443Z,14.75
2023-03-24T13:08:16.515Z,14.72
2023-03-24T13:12:03.828Z,14.73
2023-03-24T13:15:48.667Z,14.55
2023-03-24T13:19:32.262Z,14.32
2023-03-24T13:23:28.737Z,14.16
2023-03-24T13:27:17.420Z,14.05
2023-03-24T13:31:01.803Z,14.11
2023-03-24T13:34:48.985Z,14.02
2023-03-24T13:38:36.430Z,13.94
2023-03-24T13:42:31.597Z,13.75
2023-03-24T13:46:15.083Z,13.66
2023-03-24T13:50:01.880Z,13.57
2023-03-24T13:53:47.088Z,13.58
2023-03-24T13:57:31.400Z,13.47
2023-03-24T14:01:32.764Z,13.46
2023-03-24T14:05:35.859Z,13.35
2023-03-24T14:09:21.893Z,13.29
2023-03-24T14:13:06.676Z,13.28
2023-03-24T14:16:52.979Z,13.26
2023-03-24T14:20:37.370Z,13.15
2023-03-24T14:24:25.403Z,13.15
2023-03-24T14:28:21.437Z,13.14
2023-03-24T14:32:17.185Z,13.11
2023-03-24T14:36:06.680Z,13.13
2023-03-24T14:39:50.065Z,13.14
2023-03-24T14:43:54.453Z,13.23
2023-03-24T14:47:39.562Z,13.11
2023-03-24T14:51:36.704Z,13.16
2023-03-24T14:55:20.087Z,13.14
2023-03-24T14:59:08.873Z,13.10
2023-03-24T15:02:52.502Z,13.14
2023-03-24T15:06:44.539Z,13.05
2023-03-24T15:10:27.294Z,13.04
2023-03-24T15:14:20.220Z,13.13
2023-03-24T15:18:03.077Z,13.20
2023-03-24T15:21:48.480Z,13.33
2023-03-24T15:25:31.691Z,13.22
2023-03-24T15:29:16.001Z,13.14
2023-03-24T15:32:58.756Z,13.04
2023-03-24T15:36:46.265Z,12.99
2023-03-24T15:40:33.779Z,12.92
2023-03-24T15:44:21.461Z,12.85
2023-03-24T15:48:06.953Z,12.78
2023-03-24T15:51:51.326Z,12.67
2023-03-24T15:55:35.865Z,12.64
2023-03-24T15:59:19.816Z,12.56
2023-03-24T16:03:04.719Z,12.47
2023-03-24T16:06:52.271Z,12.35
2023-03-24T16:10:40.575Z,12.13
2023-03-24T16:14:26.885Z,11.90
2023-03-24T16:18:15.128Z,11.63
2023-03-24T16:21:58.035Z,11.40
2023-03-24T16:25:41.489Z,11.24
2023-03-24T16:29:25.504Z,11.17
2023-03-24T16:33:08.330Z,11.09
2023-03-24T16:36:53.004Z,11.03
2023-03-24T16:40:39.098Z,11.00
2023-03-24T16:44:22.386Z,10.95
2023-03-24T16:48:06.848Z,10.83
2023-03-24T16:51:49.612Z,10.82
2023-03-24T16:55:32.483Z,10.77
2023-03-24T16:59:15.962Z,10.70
2023-03-24T17:02:59.863Z,10.68
2023-03-24T17:06:47.047Z,10.58
2023-03-24T17:10:29.838Z,10.56
2023-03-24T17:14:13.122Z,10.59
2023-03-24T17:17:56.477Z,10.53
2023-03-24T17:21:41.748Z,10.49
2023-03-24T17:25:29.104Z,10.45
2023-03-24T17:29:13.122Z,10.44
2023-03-24T17:32:57.760Z,10.38
2023-03-24T17:36:40.935Z,10.32
2023-03-24T17:40:24.938Z,10.28
2023-03-24T17:44:07.633Z,10.26
2023-03-24T17:47:50.748Z,10.34
2023-03-24T17:51:33.519Z,10.34
2023-03-24T17:55:17.922Z,10.31
2023-03-24T17:59:03.399Z,10.26
2023-03-24T18:02:47.011Z,10.32
2023-03-24T18:06:30.764Z,10.31
2023-03-24T18:10:13.941Z,10.33
2023-03-24T18:13:56.706Z,10.29
2023-03-24T18:17:40.739Z,10.28
2023-03-24T18:21:23.451Z,10.28
2023-03-24T18:25:08.539Z,10.22
2023-03-24T18:28:51.514Z,10.16
2023-03-24T18:32:35.810Z,10.17
2023-03-24T18:36:26.206Z,10.17
2023-03-24T18:40:10.100Z,10.10
2023-03-24T18:43:52.742Z,10.17
2023-03-24T18:47:36.402Z,10.12
2023-03-24T18:51:20.853Z,10.10
2023-03-24T18:55:03.456Z,10.34
2023-03-24T18:58:49.227Z,10.34
2023-03-24T19:02:33.462Z,10.37
2023-03-24T19:06:16.990Z,10.27
2023-03-24T19:10:01.027Z,10.28
2023-03-24T19:13:46.145Z,10.26
2023-03-24T19:17:28.958Z,10.25
2023-03-24T19:21:11.933Z,10.21
2023-03-24T19:24:54.681Z,10.19
2023-03-24T19:28:38.684Z,10.18
2023-03-24T19:32:21.343Z,10.18
2023-03-24T19:36:04.509Z,10.19
2023-03-24T19:39:47.213Z,10.13
2023-03-24T19:43:29.870Z,10.16
2023-03-24T19:47:13.849Z,10.18
2023-03-24T19:50:56.817Z,10.22
2023-03-24T19:54:39.536Z,10.15
2023-03-24T19:58:22.197Z,10.10
2023-03-24T20:02:04.857Z,10.10
2023-03-24T20:05:49.303Z,10.05
2023-03-24T20:09:32.265Z,10.04
2023-03-24T20:13:14.951Z,9.91
2023-03-24T20:16:57.638Z,9.76
2023-03-24T20:20:40.326Z,9.91
2023-03-24T20:24:24.473Z,9.81
2023-03-24T20:28:07.766Z,9.73
2023-03-24T20:31:50.663Z,9.66
2023-03-24T20:35:35.162Z,9.61
2023-03-24T20:39:20.446Z,9.64
2023-03-24T20:43:04.418Z,9.57
2023-03-24T20:46:47.059Z,9.56
2023-03-24T20:50:29.974Z,9.52
2023-03-24T20:54:13.412Z,9.43
2023-03-24T20:57:56.498Z,9.48
2023-03-24T21:01:41.967Z,9.40
2023-03-24T21:05:24.635Z,9.38
2023-03-24T21:09:07.729Z,9.38
2023-03-24T21:12:54.132Z,9.45
2023-03-24T21:16:37.779Z,9.38
2023-03-24T21:20:22.223Z,9.40
2023-03-24T21:24:05.260Z,9.36
2023-03-24T21:27:48.678Z,9.37
2023-03-24T21:31:31.411Z,9.35
2023-03-24T21:35:15.095Z,9.33
2023-03-24T21:38:59.163Z,9.39
2023-03-24T21:42:42.492Z,9.33
2023-03-24T21:46:27.892Z,9.35
2023-03-24T21:50:11.476Z,9.30
2023-03-24T21:53:55.859Z,9.27
2023-03-24T21:57:39.890Z,9.26
2023-03-24T22:01:22.616Z,9.19
2023-03-24T22:05:07.010Z,9.19
2023-03-24T22:08:49.833Z,9.16
2023-03-24T22:12:32.488Z,9.14
2023-03-24T22:16:16.494Z,9.09
2023-03-24T22:19:59.216Z,9.01
2023-03-24T22:23:42.675Z,9.07
2023-03-24T22:27:25.760Z,9.10
2023-03-24T22:31:10.057Z,8.98
2023-03-24T22:34:54.076Z,9.02
2023-03-24T22:38:36.991Z,8.91
2023-03-24T22:42:19.599Z,9.08
2023-03-24T22:46:02.305Z,9.00
2023-03-24T22:49:45.020Z,8.95
2023-03-24T22:53:29.094Z,8.83
2023-03-24T22:57:12.009Z,8.83
2023-03-24T23:00:57.184Z,8.88
2023-03-24T23:04:40.832Z,8.84
2023-03-24T23:08:24.653Z,8.76
2023-03-24T23:12:11.301Z,8.73
2023-03-24T23:15:54.427Z,8.79
2023-03-24T23:19:37.462Z,8.68
2023-03-24T23:23:20.768Z,8.71
2023-03-24T23:27:04.575Z,8.62
2023-03-24T23:30:48.580Z,8.55
2023-03-24T23:34:31.362Z,8.61
2023-03-24T23:38:14.026Z,8.56
2023-03-24T23:41:56.625Z,8.55
2023-03-24T23:45:39.893Z,8.57
2023-03-24T23:49:23.980Z,8.51
2023-03-24T23:53:06.614Z,8.46
2023-03-24T23:56:51.256Z,8.39
